Time;durP1;ratioP1;P1;durP2;ratioP2;P2;SDS_P1;SDS_P2;PMS_P1;PMS_P2;Temp;Humidity;BMP_temperature;BMP_pressure;BME280_temperature;BME280_humidity;BME280_pressure;Samples;Min_cycle;Max_cycle;Signal;HPM_P1;HPM_P2
2021/05/23 00:01:12;;;;;;;1.70;0.83;;;12.20;53.00;;;;;;5121336;27;36995;-86
2021/05/23 00:04:01;;;;;;;1.97;0.80;;;12.20;53.50;;;;;;5144044;27;37653;-86
2021/05/23 00:07:19;;;;;;;0.90;0.60;;;12.10;53.40;;;;;;5135980;27;40232;-87
2021/05/23 00:10:19;;;;;;;3.20;0.70;;;12.10;52.90;;;;;;5144305;27;37834;-85
2021/05/23 00:15:40;;;;;;;0.93;0.70;;;12.00;52.50;;;;;;5111945;27;37552;-85
2021/05/23 00:18:11;;;;;;;2.80;0.70;;;12.10;52.80;;;;;;5124463;27;38392;-85
2021/05/23 00:20:39;;;;;;;1.23;0.70;;;12.10;53.10;;;;;;5120828;27;40783;-86
2021/05/23 00:23:09;;;;;;;1.90;1.00;;;12.00;53.00;;;;;;5117384;27;36444;-86
2021/05/23 00:25:38;;;;;;;3.23;0.60;;;12.00;53.00;;;;;;5140633;27;37705;-86
2021/05/23 00:28:06;;;;;;;1.33;0.60;;;12.10;53.20;;;;;;5135594;27;39854;-86
2021/05/23 00:30:33;;;;;;;1.97;0.90;;;12.10;53.40;;;;;;5141502;27;37741;-85
2021/05/23 00:33:01;;;;;;;2.40;1.50;;;12.10;53.50;;;;;;5126027;27;36744;-85
2021/05/23 00:35:29;;;;;;;0.93;0.70;;;12.10;53.40;;;;;;5140758;27;38229;-86
2021/05/23 00:37:56;;;;;;;2.07;1.00;;;12.10;53.30;;;;;;5148310;27;39682;-86
2021/05/23 00:40:24;;;;;;;1.17;0.70;;;12.00;53.10;;;;;;5132439;27;38675;-86
2021/05/23 00:42:52;;;;;;;0.90;0.60;;;12.10;53.40;;;;;;5144174;27;37013;-87
2021/05/23 00:45:20;;;;;;;1.77;0.80;;;12.10;53.30;;;;;;5127141;27;35989;-86
2021/05/23 00:47:48;;;;;;;1.00;0.50;;;12.20;53.30;;;;;;5124717;27;38533;-88
2021/05/23 00:50:18;;;;;;;0.90;0.77;;;12.20;53.40;;;;;;5124581;27;37975;-86
2021/05/23 00:52:45;;;;;;;4.23;0.60;;;12.20;53.50;;;;;;5126016;27;37996;-86
2021/05/23 00:55:13;;;;;;;1.83;0.70;;;12.20;53.60;;;;;;5118163;27;37352;-87
2021/05/23 00:57:40;;;;;;;1.20;0.80;;;12.20;53.70;;;;;;5131211;27;40568;-86
2021/05/23 01:00:10;;;;;;;1.00;0.60;;;12.10;53.40;;;;;;5139206;27;39458;-85
2021/05/23 01:02:46;;;;;;;1.03;0.60;;;12.10;53.30;;;;;;5113695;27;36653;-87
2021/05/23 01:05:16;;;;;;;2.00;0.70;;;12.10;53.30;;;;;;5125343;27;36076;-87
2021/05/23 01:07:46;;;;;;;1.03;0.67;;;12.10;53.30;;;;;;5117163;27;38486;-87
2021/05/23 01:10:16;;;;;;;1.40;0.50;;;12.20;53.40;;;;;;5134428;27;39429;-86
2021/05/23 01:13:27;;;;;;;2.90;0.60;;;12.20;53.20;;;;;;5111803;27;37009;-87
2021/05/23 01:15:55;;;;;;;1.00;0.60;;;12.20;53.30;;;;;;5024414;27;37143;-87
2021/05/23 01:18:25;;;;;;;2.50;0.60;;;12.20;53.80;;;;;;5107204;28;39865;-87
2021/05/23 01:20:56;;;;;;;0.70;0.50;;;12.20;53.80;;;;;;5131733;27;38711;-87
2021/05/23 01:23:30;;;;;;;1.00;0.70;;;12.20;54.20;;;;;;5131254;27;37503;-88
2021/05/23 01:26:06;;;;;;;0.90;0.70;;;12.20;54.30;;;;;;5110809;27;37438;-89
2021/05/23 01:28:36;;;;;;;0.83;0.60;;;12.10;54.60;;;;;;5128968;27;39434;-88
2021/05/23 01:31:06;;;;;;;1.03;0.77;;;12.10;55.10;;;;;;5110834;27;38474;-88
2021/05/23 01:33:35;;;;;;;1.20;0.80;;;12.00;55.20;;;;;;5125859;27;38927;-87
2021/05/23 01:36:04;;;;;;;2.50;0.70;;;12.10;55.10;;;;;;5114071;27;37165;-87
2021/05/23 01:38:32;;;;;;;1.20;0.70;;;12.00;55.20;;;;;;5127184;28;39652;-86
2021/05/23 01:41:04;;;;;;;0.97;0.70;;;12.00;54.90;;;;;;5144872;27;37831;-86
2021/05/23 01:43:35;;;;;;;2.60;0.70;;;12.00;55.60;;;;;;5141074;27;37436;-86
2021/05/23 01:46:02;;;;;;;1.30;0.67;;;12.00;55.20;;;;;;5160620;27;38722;-87
2021/05/23 01:48:31;;;;;;;1.10;0.70;;;11.90;55.20;;;;;;5155121;27;40917;-87
2021/05/23 01:50:58;;;;;;;1.33;0.90;;;12.00;55.20;;;;;;5134283;27;38168;-87
2021/05/23 01:53:25;;;;;;;1.33;0.70;;;12.00;55.40;;;;;;5157834;27;41107;-87
2021/05/23 01:55:52;;;;;;;1.80;0.60;;;11.90;55.40;;;;;;5159113;27;38566;-86
2021/05/23 01:58:20;;;;;;;0.90;0.60;;;11.90;55.90;;;;;;5131959;27;39421;-88
2021/05/23 02:00:49;;;;;;;0.90;0.67;;;11.90;56.40;;;;;;5113730;27;38832;-87
2021/05/23 02:03:18;;;;;;;4.00;0.80;;;11.90;56.80;;;;;;5107448;27;37060;-86
2021/05/23 02:05:47;;;;;;;0.90;0.70;;;11.80;57.10;;;;;;5113921;27;35962;-87
2021/05/23 02:08:18;;;;;;;2.73;0.70;;;11.80;57.40;;;;;;5133922;27;39202;-87
2021/05/23 02:10:45;;;;;;;1.43;0.63;;;11.80;57.30;;;;;;5110933;27;38090;-87
2021/05/23 02:13:13;;;;;;;0.83;0.63;;;11.80;57.60;;;;;;5135313;27;38226;-87
2021/05/23 02:15:41;;;;;;;1.43;1.10;;;11.80;57.60;;;;;;5110131;27;35965;-87
2021/05/23 02:18:09;;;;;;;1.00;0.90;;;11.80;57.60;;;;;;5129348;27;39469;-87
2021/05/23 02:20:37;;;;;;;1.53;0.70;;;11.80;58.20;;;;;;5122111;27;39408;-87
2021/05/23 02:23:06;;;;;;;0.90;0.60;;;11.70;58.00;;;;;;5112932;27;37749;-87
2021/05/23 02:25:34;;;;;;;3.00;0.77;;;11.60;58.00;;;;;;5113130;27;36314;-86
2021/05/23 02:28:04;;;;;;;1.00;0.67;;;11.60;58.20;;;;;;5121492;27;40518;-85
2021/05/23 02:30:34;;;;;;;1.10;0.70;;;11.60;58.20;;;;;;5109319;27;37931;-85
2021/05/23 02:33:03;;;;;;;3.03;0.60;;;11.60;58.00;;;;;;5109236;27;37573;-86
2021/05/23 02:35:32;;;;;;;1.73;0.50;;;11.60;57.50;;;;;;5114301;27;36028;-86
2021/05/23 02:38:00;;;;;;;0.80;0.70;;;11.60;57.50;;;;;;5112522;27;40001;-84
2021/05/23 02:40:30;;;;;;;0.80;0.60;;;11.60;57.30;;;;;;5125821;27;39747;-84
2021/05/23 02:42:58;;;;;;;0.90;0.60;;;11.50;57.30;;;;;;5103277;27;36644;-86
2021/05/23 02:45:26;;;;;;;0.70;0.50;;;11.50;57.10;;;;;;5109153;27;35985;-85
2021/05/23 02:47:54;;;;;;;0.93;0.57;;;11.50;57.20;;;;;;5105740;27;39243;-85
2021/05/23 02:50:24;;;;;;;1.43;0.70;;;11.50;57.40;;;;;;5108620;27;39544;-85
2021/05/23 02:52:51;;;;;;;1.20;0.60;;;11.50;57.60;;;;;;5121835;27;38889;-85
2021/05/23 02:55:18;;;;;;;1.10;0.90;;;11.50;57.60;;;;;;5123552;27;37136;-86
2021/05/23 02:57:46;;;;;;;0.80;0.60;;;11.50;57.60;;;;;;5124860;27;37971;-86
2021/05/23 03:00:15;;;;;;;0.80;0.60;;;11.50;58.40;;;;;;5103097;27;38339;-85
2021/05/23 03:02:43;;;;;;;0.80;0.60;;;11.50;58.50;;;;;;5092219;28;37231;-86
2021/05/23 03:05:13;;;;;;;0.80;0.50;;;11.50;58.60;;;;;;5106094;28;37287;-87
2021/05/23 03:07:43;;;;;;;1.17;0.83;;;11.40;58.50;;;;;;5089971;28;40903;-87
2021/05/23 03:10:12;;;;;;;1.00;0.70;;;11.30;58.80;;;;;;5092389;28;37943;-88
2021/05/23 03:12:40;;;;;;;0.80;0.70;;;11.20;58.70;;;;;;5082903;28;37163;-86
2021/05/23 03:15:10;;;;;;;3.53;0.80;;;11.20;59.20;;;;;;5092533;28;35945;-87
2021/05/23 03:17:38;;;;;;;1.80;0.90;;;11.20;60.10;;;;;;5090627;28;38180;-87
2021/05/23 03:20:07;;;;;;;0.90;0.60;;;11.20;60.40;;;;;;5093721;28;38180;-85
2021/05/23 03:22:35;;;;;;;1.73;0.60;;;11.10;59.30;;;;;;5090289;28;36859;-85
2021/05/23 03:25:04;;;;;;;1.93;0.60;;;11.00;59.70;;;;;;5091512;27;35869;-87
2021/05/23 03:27:31;;;;;;;1.97;0.70;;;10.90;59.30;;;;;;5079965;28;40085;-86
2021/05/23 03:29:58;;;;;;;0.83;0.60;;;10.90;60.40;;;;;;5088665;28;37757;-88
2021/05/23 03:32:26;;;;;;;0.90;0.50;;;10.90;59.90;;;;;;5092920;28;37810;-87
2021/05/23 03:34:53;;;;;;;0.73;0.60;;;10.80;59.30;;;;;;5091722;28;35733;-86
2021/05/23 03:37:20;;;;;;;1.20;0.70;;;10.90;59.50;;;;;;5086325;28;38429;-86
2021/05/23 03:39:47;;;;;;;1.07;0.53;;;10.90;59.50;;;;;;5088182;28;38798;-86
2021/05/23 03:42:15;;;;;;;1.77;0.77;;;10.90;59.40;;;;;;5110032;27;38240;-86
2021/05/23 03:44:43;;;;;;;0.97;0.70;;;11.00;59.60;;;;;;5091927;28;38563;-86
2021/05/23 03:47:10;;;;;;;1.17;0.80;;;11.00;59.60;;;;;;5081636;28;39900;-86
2021/05/23 03:49:38;;;;;;;0.90;0.63;;;11.00;59.80;;;;;;5080462;28;37735;-87
2021/05/23 03:52:06;;;;;;;1.00;0.70;;;11.10;59.90;;;;;;5108613;27;38700;-86
2021/05/23 03:54:33;;;;;;;0.93;0.60;;;11.10;59.90;;;;;;5094588;28;37406;-87
2021/05/23 03:57:01;;;;;;;1.10;0.60;;;11.10;60.00;;;;;;5091706;28;40194;-86
2021/05/23 03:59:29;;;;;;;0.77;0.53;;;11.10;59.80;;;;;;5086350;28;38494;-85
2021/05/23 04:01:56;;;;;;;1.00;0.60;;;11.10;59.70;;;;;;5086401;27;37615;-86
2021/05/23 04:04:35;;;;;;;1.43;0.60;;;11.10;59.60;;;;;;5092222;27;38242;-85
2021/05/23 04:07:03;;;;;;;4.37;0.70;;;11.20;59.90;;;;;;5093673;28;38346;-85
2021/05/23 04:09:30;;;;;;;1.03;0.80;;;11.20;60.00;;;;;;5087838;28;38361;-86
2021/05/23 04:11:57;;;;;;;3.90;1.00;;;11.20;59.90;;;;;;5109950;28;38176;-85
2021/05/23 04:14:24;;;;;;;1.97;0.70;;;11.30;59.70;;;;;;5108385;27;37179;-86
2021/05/23 04:16:53;;;;;;;1.53;0.67;;;11.40;59.40;;;;;;5097181;28;38966;-86
2021/05/23 04:19:20;;;;;;;1.93;0.63;;;11.30;58.80;;;;;;5094533;28;38497;-86
2021/05/23 04:21:48;;;;;;;1.10;0.53;;;11.30;58.60;;;;;;5113681;28;38513;-86
2021/05/23 04:24:15;;;;;;;0.90;0.60;;;11.30;58.30;;;;;;5110689;27;37534;-86
2021/05/23 04:26:43;;;;;;;1.00;0.57;;;11.30;57.50;;;;;;5091763;28;38971;-86
2021/05/23 04:29:10;;;;;;;0.80;0.40;;;11.30;57.70;;;;;;5097676;28;40186;-86
2021/05/23 04:31:37;;;;;;;1.43;0.70;;;11.30;57.70;;;;;;5094491;28;37586;-85
2021/05/23 04:34:05;;;;;;;1.17;0.70;;;11.30;57.30;;;;;;5094709;27;37258;-85
2021/05/23 04:36:32;;;;;;;1.93;0.60;;;11.30;57.30;;;;;;5096603;28;38183;-86
2021/05/23 04:38:59;;;;;;;1.17;0.73;;;11.30;57.10;;;;;;5108746;27;39289;-86
2021/05/23 04:41:26;;;;;;;1.77;0.60;;;11.30;57.30;;;;;;5116947;28;38162;-86
2021/05/23 04:43:53;;;;;;;0.70;0.60;;;11.40;57.70;;;;;;5113047;27;38093;-85
2021/05/23 04:46:20;;;;;;;1.47;0.70;;;11.40;57.90;;;;;;5115276;28;38934;-88
2021/05/23 04:48:47;;;;;;;1.07;0.63;;;11.50;57.60;;;;;;5084456;28;38321;-86
2021/05/23 04:51:16;;;;;;;1.00;0.87;;;11.50;57.30;;;;;;5088793;28;36727;-87
2021/05/23 04:53:45;;;;;;;1.00;0.60;;;11.60;57.20;;;;;;5113203;27;38024;-86
2021/05/23 04:56:12;;;;;;;1.20;0.90;;;11.60;56.90;;;;;;5112644;27;40525;-86
2021/05/23 04:58:39;;;;;;;0.80;0.60;;;11.60;56.90;;;;;;5114953;28;39314;-85
2021/05/23 05:01:06;;;;;;;1.47;0.60;;;11.60;56.90;;;;;;5080649;28;36979;-84
2021/05/23 05:03:34;;;;;;;0.80;0.50;;;11.70;56.60;;;;;;5101283;27;37211;-85
2021/05/23 05:06:01;;;;;;;0.83;0.50;;;11.70;56.70;;;;;;5096665;28;38265;-85
2021/05/23 05:08:29;;;;;;;2.50;0.60;;;11.80;56.10;;;;;;5092657;28;38546;-87
2021/05/23 05:10:56;;;;;;;0.90;0.73;;;11.90;56.00;;;;;;5115066;28;37992;-85
2021/05/23 05:13:23;;;;;;;3.93;0.70;;;11.90;55.90;;;;;;5095874;28;35972;-85
2021/05/23 05:15:50;;;;;;;1.63;0.50;;;12.00;55.80;;;;;;5114918;28;39686;-85
2021/05/23 05:18:17;;;;;;;2.30;0.80;;;12.00;55.60;;;;;;5088851;28;37682;-85
2021/05/23 05:20:44;;;;;;;2.43;0.60;;;12.10;55.30;;;;;;5076529;28;36704;-85
2021/05/23 05:23:12;;;;;;;1.23;0.60;;;12.10;55.30;;;;;;5096239;28;36327;-86
2021/05/23 05:25:40;;;;;;;0.93;0.53;;;12.00;55.10;;;;;;5114544;28;40336;-85
2021/05/23 05:28:07;;;;;;;0.83;0.50;;;12.10;55.30;;;;;;5120163;27;39425;-84
2021/05/23 05:30:35;;;;;;;1.40;0.50;;;12.10;54.80;;;;;;5082851;27;36495;-84
2021/05/23 05:33:02;;;;;;;1.13;0.60;;;12.10;54.60;;;;;;5116518;27;37436;-85
2021/05/23 05:35:29;;;;;;;0.83;0.50;;;12.10;54.70;;;;;;5089099;28;38573;-86
2021/05/23 05:37:57;;;;;;;0.80;0.50;;;12.20;54.80;;;;;;5121203;28;38184;-85
2021/05/23 05:40:27;;;;;;;0.93;0.93;;;12.20;54.30;;;;;;5120802;27;38926;-86
2021/05/23 05:42:55;;;;;;;1.63;0.77;;;12.30;54.40;;;;;;5125807;27;36690;-87
2021/05/23 05:45:23;;;;;;;0.70;0.50;;;12.40;54.20;;;;;;5105496;28;38629;-86
2021/05/23 05:47:53;;;;;;;0.70;0.57;;;12.50;54.20;;;;;;5105789;28;38063;-86
2021/05/23 05:50:20;;;;;;;1.70;0.60;;;12.60;53.90;;;;;;5103976;28;37234;-86
2021/05/23 05:52:47;;;;;;;0.93;0.60;;;12.70;53.10;;;;;;5101405;28;36165;-85
2021/05/23 05:55:14;;;;;;;2.10;0.60;;;12.80;52.80;;;;;;5089373;28;38493;-86
2021/05/23 05:57:42;;;;;;;1.30;0.60;;;12.80;52.00;;;;;;5107574;28;39139;-86
2021/05/23 06:00:13;;;;;;;1.20;0.60;;;12.70;51.80;;;;;;5115027;27;38356;-86
2021/05/23 06:02:45;;;;;;;0.90;0.57;;;12.60;52.20;;;;;;5139806;27;38354;-85
2021/05/23 06:05:13;;;;;;;1.23;0.50;;;12.60;51.90;;;;;;5117279;27;40790;-87
2021/05/23 06:07:40;;;;;;;0.90;0.60;;;12.70;52.40;;;;;;5110545;28;37793;-85
2021/05/23 06:10:08;;;;;;;1.10;0.67;;;12.80;51.60;;;;;;5129049;27;38971;-86
2021/05/23 06:12:37;;;;;;;1.53;0.60;;;12.90;51.80;;;;;;5131032;27;37478;-85
2021/05/23 06:15:10;;;;;;;1.30;0.60;;;13.00;51.10;;;;;;5125935;27;39650;-86
2021/05/23 06:17:38;;;;;;;1.90;0.70;;;13.10;51.40;;;;;;5140284;27;39513;-86
2021/05/23 06:20:11;;;;;;;0.87;0.50;;;13.10;50.90;;;;;;5131318;27;36839;-86
2021/05/23 06:22:38;;;;;;;2.70;0.70;;;13.00;52.10;;;;;;5142778;27;37848;-82
2021/05/23 06:25:07;;;;;;;2.70;1.07;;;12.80;53.70;;;;;;5125998;27;38090;-83
2021/05/23 06:27:34;;;;;;;0.70;0.50;;;12.50;54.50;;;;;;5141441;27;39254;-84
2021/05/23 06:30:02;;;;;;;0.80;0.50;;;12.40;55.60;;;;;;5121436;27;36956;-83
2021/05/23 06:32:29;;;;;;;1.00;0.70;;;12.30;55.50;;;;;;5134865;27;36506;-83
2021/05/23 06:34:57;;;;;;;1.00;0.60;;;12.30;55.50;;;;;;5118477;27;38564;-84
2021/05/23 06:37:24;;;;;;;2.00;0.60;;;12.30;55.50;;;;;;5120842;27;38090;-83
2021/05/23 06:39:51;;;;;;;0.90;0.70;;;12.40;55.20;;;;;;5114855;27;36604;-82
2021/05/23 06:42:18;;;;;;;1.47;0.60;;;12.60;54.90;;;;;;5121871;27;36762;-82
2021/05/23 06:44:45;;;;;;;2.90;0.80;;;13.00;55.00;;;;;;5119932;27;39250;-84
2021/05/23 06:47:13;;;;;;;1.40;0.50;;;13.50;53.80;;;;;;5120530;27;38189;-84
2021/05/23 06:49:40;;;;;;;0.70;0.60;;;14.10;53.20;;;;;;5136150;27;37365;-83
2021/05/23 06:52:08;;;;;;;1.37;0.60;;;14.80;51.50;;;;;;5107036;28;37693;-83
2021/05/23 06:54:35;;;;;;;15.20;1.13;;;15.50;48.90;;;;;;5114204;27;39569;-84
2021/05/23 06:57:03;;;;;;;0.87;0.60;;;16.10;47.70;;;;;;5136678;27;39352;-83
2021/05/23 06:59:30;;;;;;;1.77;0.50;;;16.50;45.50;;;;;;5119557;27;36689;-85
2021/05/23 07:01:57;;;;;;;1.10;0.50;;;16.70;44.50;;;;;;5121588;27;36732;-83
2021/05/23 07:04:24;;;;;;;0.93;0.67;;;16.80;44.10;;;;;;5122183;27;38724;-82
2021/05/23 07:06:52;;;;;;;0.70;0.40;;;16.70;43.90;;;;;;5121851;27;38182;-83
2021/05/23 07:09:20;;;;;;;0.70;0.40;;;16.60;44.20;;;;;;5125952;27;36929;-83
2021/05/23 07:11:48;;;;;;;1.37;0.50;;;16.50;44.50;;;;;;5112708;28;35829;-83
2021/05/23 07:14:15;;;;;;;1.03;0.60;;;16.60;44.20;;;;;;5142012;27;39483;-82
2021/05/23 07:16:42;;;;;;;0.70;0.40;;;16.80;44.20;;;;;;5141477;27;38963;-83
2021/05/23 07:19:09;;;;;;;0.93;0.47;;;17.90;45.50;;;;;;5116856;27;36576;-84
2021/05/23 07:21:46;;;;;;;1.33;0.60;;;21.10;40.10;;;;;;5131240;27;35986;-86
2021/05/23 07:24:16;;;;;;;1.87;0.40;;;24.90;34.50;;;;;;5144555;27;39959;-86
2021/05/23 07:26:44;;;;;;;0.80;0.40;;;28.20;28.20;;;;;;5144365;27;39247;-87
2021/05/23 07:29:12;;;;;;;0.90;0.50;;;30.60;25.90;;;;;;5116035;27;36921;-86
2021/05/23 07:31:42;;;;;;;1.73;0.40;;;32.00;23.00;;;;;;5114521;27;35994;-89
2021/05/23 07:34:09;;;;;;;1.10;0.50;;;33.60;23.10;;;;;;5137773;27;38282;-87
2021/05/23 07:36:38;;;;;;;0.90;0.50;;;35.30;21.10;;;;;;5140443;27;39579;-87
2021/05/23 07:39:06;;;;;;;1.30;0.70;;;36.20;20.00;;;;;;5114299;27;37110;-86
2021/05/23 07:41:33;;;;;;;0.80;0.50;;;37.60;18.80;;;;;;5140652;27;36455;-89
2021/05/23 07:52:09;;;;;;;;;;;;;;;;;;;;;
2021/05/23 07:59:25;;;;;;;1.40;0.50;;;37.90;16.50;;;;;;5122183;27;40707;-88
2021/05/23 08:22:27;;;;;;;2.60;0.50;;;38.40;14.30;;;;;;4916870;29;39479;-91
2021/05/23 08:25:10;;;;;;;1.63;0.50;;;37.40;14.40;;;;;;4938946;28;39804;-92
2021/05/23 08:28:34;;;;;;;1.33;0.40;;;34.40;15.90;;;;;;5011753;28;39384;-92
2021/05/23 08:46:42;;;;;;;0.70;0.50;;;29.60;19.20;;;;;;5020663;28;41544;-81
2021/05/23 08:49:09;;;;;;;1.00;0.50;;;26.90;21.10;;;;;;5099845;27;38007;-80
2021/05/23 08:51:38;;;;;;;1.37;0.50;;;25.10;24.10;;;;;;5095994;28;37513;-80
2021/05/23 08:54:06;;;;;;;0.87;0.40;;;23.40;24.70;;;;;;5112378;28;39534;-81
2021/05/23 08:56:33;;;;;;;1.93;0.63;;;23.00;25.40;;;;;;5094558;28;37539;-82
2021/05/23 08:59:00;;;;;;;1.13;0.67;;;22.60;26.40;;;;;;5096597;28;36950;-81
2021/05/23 09:01:29;;;;;;;0.87;0.47;;;21.70;26.20;;;;;;5095488;28;36123;-82
2021/05/23 09:03:59;;;;;;;1.30;0.70;;;21.60;27.30;;;;;;5097576;28;38342;-82
2021/05/23 09:06:27;;;;;;;1.83;0.60;;;22.20;27.20;;;;;;5096726;28;38674;-82
2021/05/23 09:08:58;;;;;;;0.80;0.60;;;23.40;26.20;;;;;;5126905;27;37830;-81
2021/05/23 09:11:28;;;;;;;1.10;0.70;;;24.60;24.70;;;;;;5114019;27;36130;-80
2021/05/23 09:13:56;;;;;;;1.10;0.57;;;26.00;24.10;;;;;;5116307;27;38670;-81
2021/05/23 09:16:23;;;;;;;1.10;0.70;;;27.10;22.60;;;;;;5131388;27;39334;-81
2021/05/23 09:18:52;;;;;;;0.80;0.50;;;28.10;22.70;;;;;;5119029;27;37530;-82
2021/05/23 09:21:22;;;;;;;2.10;0.60;;;28.40;20.60;;;;;;5127015;27;37622;-81
2021/05/23 09:23:51;;;;;;;1.60;0.70;;;28.30;20.80;;;;;;5132647;27;39477;-81
2021/05/23 09:26:22;;;;;;;1.20;0.63;;;27.90;20.30;;;;;;5127913;27;39148;-81
2021/05/23 09:28:50;;;;;;;1.37;0.80;;;27.50;20.70;;;;;;5111062;27;37102;-80
2021/05/23 09:31:19;;;;;;;1.50;0.70;;;26.90;22.70;;;;;;5127792;27;37286;-80
2021/05/23 09:33:51;;;;;;;1.67;0.60;;;27.60;21.20;;;;;;5121325;27;39858;-80
2021/05/23 09:36:20;;;;;;;0.90;0.50;;;28.00;20.10;;;;;;5129801;27;39182;-79
2021/05/23 09:38:52;;;;;;;5.77;1.20;;;27.00;21.10;;;;;;5112445;27;37092;-77
2021/05/23 09:41:21;;;;;;;5.10;1.30;;;25.80;21.80;;;;;;5130084;27;36771;-79
2021/05/23 09:43:50;;;;;;;7.47;2.00;;;25.20;22.30;;;;;;5132175;27;38388;-80
2021/05/23 09:46:18;;;;;;;2.03;0.90;;;24.60;23.00;;;;;;5112989;27;38867;-80
2021/05/23 09:48:50;;;;;;;1.97;0.80;;;24.10;22.30;;;;;;5143346;27;37595;-80
2021/05/23 09:51:18;;;;;;;2.60;1.00;;;23.90;23.30;;;;;;5143482;27;37595;-82
2021/05/23 09:53:58;;;;;;;1.17;0.60;;;23.30;24.00;;;;;;5116950;27;41059;-80
2021/05/23 09:56:31;;;;;;;1.20;0.60;;;23.00;23.90;;;;;;5136572;27;39086;-80
2021/05/23 09:58:58;;;;;;;1.27;0.80;;;22.10;23.70;;;;;;5140196;27;37784;-84
2021/05/23 10:01:27;;;;;;;0.90;0.40;;;21.40;26.40;;;;;;5136856;27;37201;-84
2021/05/23 10:03:56;;;;;;;1.00;0.50;;;21.10;26.40;;;;;;5123687;27;39662;-85
2021/05/23 10:06:27;;;;;;;1.47;0.43;;;20.80;27.00;;;;;;5125295;27;37519;-85
2021/05/23 10:08:56;;;;;;;1.00;0.53;;;20.40;28.20;;;;;;5148493;27;38271;-87
2021/05/23 10:11:24;;;;;;;0.60;0.30;;;20.10;28.20;;;;;;5132950;27;35619;-86
2021/05/23 10:13:52;;;;;;;0.80;0.40;;;19.70;29.10;;;;;;5150591;27;40214;-86
2021/05/23 10:16:19;;;;;;;1.43;0.43;;;19.40;27.80;;;;;;5144432;27;37671;-86
2021/05/23 10:18:49;;;;;;;0.70;0.33;;;19.10;28.30;;;;;;5123592;27;37649;-85
2021/05/23 10:21:19;;;;;;;1.00;0.67;;;18.90;28.30;;;;;;5115781;27;36868;-88
2021/05/23 10:23:53;;;;;;;1.33;0.80;;;18.80;29.60;;;;;;5137324;27;39236;-93
2021/05/23 11:41:15;;;;;;;1.47;0.80;;;22.90;22.00;;;;;;5071324;28;39015;-92
2021/05/23 12:07:16;;;;;;;1.90;0.50;;;21.00;25.10;;;;;;4907086;28;37992;-89
2021/05/23 12:09:44;;;;;;;1.00;0.50;;;21.90;24.10;;;;;;5037182;27;40824;-90
2021/05/23 12:12:14;;;;;;;1.10;0.60;;;22.30;23.60;;;;;;5121491;27;38238;-90
2021/05/23 12:14:49;;;;;;;1.53;0.80;;;22.50;23.20;;;;;;5120228;27;38477;-89
2021/05/23 12:17:18;;;;;;;0.90;0.60;;;22.90;22.50;;;;;;5137644;27;37519;-90
2021/05/23 12:19:49;;;;;;;1.80;0.50;;;23.00;21.50;;;;;;5118393;27;38658;-90
2021/05/23 12:22:46;;;;;;;1.20;0.50;;;22.70;21.30;;;;;;5118195;27;38309;-92
2021/05/23 12:25:15;;;;;;;1.27;0.47;;;23.00;22.10;;;;;;5117281;28;37968;-90
2021/05/23 12:27:48;;;;;;;1.07;0.50;;;23.10;21.80;;;;;;5113666;27;35674;-90
2021/05/23 12:30:22;;;;;;;1.73;0.50;;;23.20;21.70;;;;;;5136183;27;39872;-88
2021/05/23 12:33:05;;;;;;;1.47;0.60;;;23.10;21.60;;;;;;5107647;27;37710;-89
2021/05/23 12:35:37;;;;;;;0.80;0.60;;;22.90;22.10;;;;;;5133372;27;37773;-90
2021/05/23 12:38:11;;;;;;;3.00;0.60;;;22.90;22.20;;;;;;5112303;27;37264;-89
2021/05/23 12:40:45;;;;;;;1.27;0.67;;;22.70;22.90;;;;;;5109414;27;39230;-89
2021/05/23 12:43:14;;;;;;;0.90;0.40;;;22.40;22.20;;;;;;5128878;27;38770;-90
2021/05/23 12:45:57;;;;;;;1.13;0.53;;;22.10;23.00;;;;;;5121902;27;36353;-92
2021/05/23 12:48:26;;;;;;;1.93;0.60;;;22.10;23.00;;;;;;5131941;27;37146;-91
2021/05/23 12:50:55;;;;;;;1.50;0.50;;;21.80;23.20;;;;;;5122449;27;38061;-89
2021/05/23 12:53:29;;;;;;;1.80;0.60;;;21.40;23.90;;;;;;5103453;28;37584;-89
2021/05/23 12:56:09;;;;;;;0.80;0.40;;;20.80;23.10;;;;;;5111800;27;36558;-90
2021/05/23 12:58:47;;;;;;;1.80;0.70;;;20.50;23.80;;;;;;5120382;27;35735;-90
2021/05/23 13:01:20;;;;;;;0.97;0.50;;;20.30;25.00;;;;;;5137548;27;38952;-90
2021/05/23 13:07:55;;;;;;;2.87;0.57;;;19.90;24.70;;;;;;5034627;28;36761;-91
2021/05/23 13:10:23;;;;;;;1.27;0.63;;;20.00;24.30;;;;;;5062692;27;37295;-90
2021/05/23 13:13:01;;;;;;;0.93;0.50;;;19.90;24.40;;;;;;5102148;27;38324;-90
2021/05/23 13:15:30;;;;;;;1.60;0.80;;;20.20;24.10;;;;;;5128018;27;39506;-91
2021/05/23 13:17:58;;;;;;;7.50;1.10;;;20.50;24.40;;;;;;5122578;27;39075;-89
2021/05/23 13:20:29;;;;;;;1.77;0.70;;;20.70;23.70;;;;;;5099284;28;35985;-88
2021/05/23 13:22:57;;;;;;;1.77;0.60;;;21.10;24.20;;;;;;5128181;27;40052;-91
2021/05/23 13:25:26;;;;;;;1.13;0.60;;;21.40;23.50;;;;;;5124782;27;38182;-90
2021/05/23 13:27:54;;;;;;;1.43;0.60;;;21.30;23.30;;;;;;5121230;27;36825;-89
2021/05/23 13:30:25;;;;;;;1.20;0.60;;;21.10;23.60;;;;;;5145411;27;37577;-89
2021/05/23 13:32:53;;;;;;;1.93;0.70;;;20.80;23.70;;;;;;5120130;27;38461;-90
2021/05/23 13:35:22;;;;;;;1.00;0.50;;;21.00;24.40;;;;;;5113769;28;37812;-91
2021/05/23 13:37:52;;;;;;;1.23;0.60;;;21.00;23.90;;;;;;5118004;27;37515;-94
2021/05/23 13:40:19;;;;;;;1.27;0.60;;;20.80;24.00;;;;;;5139194;27;37584;-89
2021/05/23 13:42:48;;;;;;;1.00;0.50;;;20.70;23.00;;;;;;5117093;27;39422;-89
2021/05/23 13:45:16;;;;;;;1.03;0.50;;;20.70;22.80;;;;;;5116458;27;38807;-89
2021/05/23 13:47:47;;;;;;;1.10;0.60;;;20.90;23.40;;;;;;5115728;27;37235;-90
2021/05/23 13:50:15;;;;;;;2.37;0.60;;;21.00;22.80;;;;;;5116051;27;35868;-90
2021/05/23 13:52:42;;;;;;;4.17;0.57;;;21.20;22.50;;;;;;5128847;27;40669;-90
2021/05/23 13:55:11;;;;;;;0.87;0.50;;;21.40;23.00;;;;;;5131638;27;37844;-90
2021/05/23 13:57:38;;;;;;;0.97;0.60;;;21.40;22.80;;;;;;5108497;27;36408;-90
2021/05/23 14:00:11;;;;;;;1.10;0.60;;;21.20;23.70;;;;;;5122629;27;36580;-91
2021/05/23 14:02:38;;;;;;;0.80;0.53;;;21.00;24.60;;;;;;5116565;28;39499;-91
2021/05/23 14:05:06;;;;;;;1.10;0.50;;;20.90;23.90;;;;;;5135156;27;39915;-92
2021/05/23 14:07:34;;;;;;;1.00;0.50;;;20.60;24.20;;;;;;5141527;27;39165;-91
2021/05/23 14:10:01;;;;;;;1.00;0.60;;;20.30;24.30;;;;;;5115736;28;36436;-91
2021/05/23 14:12:29;;;;;;;1.83;0.50;;;20.30;25.10;;;;;;5106376;28;38363;-91
2021/05/23 14:14:57;;;;;;;1.27;0.80;;;20.20;23.80;;;;;;5121754;27;39233;-91
2021/05/23 14:17:25;;;;;;;0.70;0.43;;;20.20;23.10;;;;;;5129822;27;38277;-87
2021/05/23 14:19:52;;;;;;;1.50;0.57;;;20.10;22.30;;;;;;5122316;27;36335;-87
2021/05/23 14:22:19;;;;;;;1.00;0.60;;;20.20;22.80;;;;;;5143366;27;40103;-88
2021/05/23 15:03:34;;;;;;;0.70;0.50;;;20.60;21.50;;;;;;5045819;28;38128;-92
2021/05/23 15:06:06;;;;;;;1.57;1.00;;;20.60;22.10;;;;;;5094028;27;38965;-92
2021/05/23 15:13:11;;;;;;;;;;;;;;;;;;;;;
2021/05/23 15:16:35;;;;;;;1.57;0.60;;;20.80;20.40;;;;;;5129706;27;36531;-91
2021/05/23 15:58:21;;;;;;;;;;;;;;;;;;;;;
2021/05/23 16:02:08;;;;;;;;;;;;;;;;;;;;;
2021/05/23 16:05:12;;;;;;;1.83;0.60;;;19.90;20.60;;;;;;5010811;28;39512;-89
2021/05/23 16:08:12;;;;;;;1.47;0.60;;;19.50;22.00;;;;;;4993907;28;36957;-89
2021/05/23 16:10:43;;;;;;;1.00;0.80;;;19.30;22.10;;;;;;5100970;28;37799;-88
2021/05/23 16:16:46;;;;;;;1.17;0.53;;;19.00;22.70;;;;;;5082987;27;40665;-85
2021/05/23 16:19:16;;;;;;;1.43;0.57;;;19.10;22.60;;;;;;5105094;27;38962;-87
2021/05/23 16:21:46;;;;;;;1.23;0.60;;;19.40;22.20;;;;;;5113554;27;38281;-87
2021/05/23 16:24:13;;;;;;;2.10;0.70;;;19.70;22.00;;;;;;5084887;28;35896;-88
2021/05/23 16:26:40;;;;;;;2.30;0.60;;;20.10;21.90;;;;;;5092595;27;38398;-87
2021/05/23 16:29:08;;;;;;;0.90;0.70;;;20.50;21.90;;;;;;5108201;28;39139;-87
2021/05/23 16:31:36;;;;;;;1.40;0.40;;;20.70;21.80;;;;;;5096694;28;37816;-88
2021/05/23 16:34:03;;;;;;;1.93;0.70;;;20.70;21.50;;;;;;5108487;27;36861;-88
2021/05/23 16:36:30;;;;;;;2.53;0.70;;;20.70;21.60;;;;;;5112571;27;39237;-89
2021/05/23 16:39:00;;;;;;;1.33;0.70;;;20.70;22.50;;;;;;5114362;27;39944;-89
2021/05/23 16:41:29;;;;;;;0.87;0.67;;;20.70;21.90;;;;;;5110754;27;37690;-86
2021/05/23 16:43:56;;;;;;;1.80;0.60;;;20.60;22.20;;;;;;5096506;27;37328;-87
2021/05/23 16:46:23;;;;;;;1.03;0.50;;;20.70;21.90;;;;;;5095933;28;41401;-87
2021/05/23 16:48:50;;;;;;;1.23;0.70;;;20.80;21.80;;;;;;5091078;28;37577;-87
2021/05/23 16:51:18;;;;;;;1.10;0.70;;;20.70;22.00;;;;;;5109199;27;37774;-86
2021/05/23 16:53:45;;;;;;;1.93;0.80;;;20.70;22.00;;;;;;5095670;27;36149;-88
2021/05/23 16:56:13;;;;;;;1.20;0.50;;;20.80;21.90;;;;;;5089602;28;38383;-86
2021/05/23 16:58:40;;;;;;;1.43;0.50;;;20.80;21.50;;;;;;5092947;28;37605;-88
2021/05/23 17:01:07;;;;;;;0.80;0.50;;;20.80;21.50;;;;;;5088110;28;36716;-86
2021/05/23 17:03:34;;;;;;;2.40;0.57;;;20.50;21.00;;;;;;5089589;27;36340;-87
2021/05/23 17:06:01;;;;;;;1.30;0.70;;;20.20;21.90;;;;;;5091395;28;38418;-81